createdAt,value
2017-04-09T00:00:19.828Z,12.67
2017-04-09T00:01:20.401Z,12.60
2017-04-09T00:02:20.973Z,12.60
2017-04-09T00:03:21.544Z,12.64
2017-04-09T00:04:22.116Z,12.57
2017-04-09T00:05:22.688Z,12.60
2017-04-09T00:06:23.261Z,12.58
2017-04-09T00:07:23.851Z,12.49
2017-04-09T00:08:24.424Z,12.58
2017-04-09T00:09:24.996Z,12.55
2017-04-09T00:10:25.586Z,12.58
2017-04-09T00:11:26.160Z,12.55
2017-04-09T00:12:26.735Z,12.55
2017-04-09T00:13:27.324Z,12.36
2017-04-09T00:14:27.897Z,12.49
2017-04-09T00:15:28.469Z,12.43
2017-04-09T00:16:29.043Z,12.45
2017-04-09T00:17:29.614Z,12.43
2017-04-09T00:18:30.186Z,12.45
2017-04-09T00:19:30.760Z,12.45
2017-04-09T00:20:31.531Z,12.47
2017-04-09T00:21:32.105Z,12.49
2017-04-09T00:22:32.677Z,12.49
2017-04-09T00:23:33.251Z,12.50
2017-04-09T00:24:33.823Z,12.45
2017-04-09T00:25:34.396Z,12.45
2017-04-09T00:26:34.968Z,12.47
2017-04-09T00:27:35.540Z,12.45
2017-04-09T00:28:36.113Z,12.47
2017-04-09T00:29:36.688Z,12.43
2017-04-09T00:30:37.258Z,12.42
2017-04-09T00:31:37.830Z,12.43
2017-04-09T00:32:38.402Z,12.45
2017-04-09T00:33:38.974Z,12.36
2017-04-09T00:34:39.546Z,12.39
2017-04-09T00:35:40.317Z,12.39
2017-04-09T00:36:40.889Z,12.40
2017-04-09T00:37:41.462Z,12.39
2017-04-09T00:38:42.033Z,12.31
2017-04-09T00:39:42.606Z,12.39
2017-04-09T00:40:43.179Z,12.36
2017-04-09T00:41:43.751Z,12.27
2017-04-09T00:42:44.323Z,12.29
2017-04-09T00:43:44.895Z,12.31
2017-04-09T00:44:45.469Z,12.28
2017-04-09T00:45:46.040Z,12.21
2017-04-09T00:46:46.613Z,12.27
2017-04-09T00:47:47.187Z,12.17
2017-04-09T00:48:47.758Z,12.22
2017-04-09T00:49:48.329Z,12.12
2017-04-09T00:50:49.104Z,12.15
2017-04-09T00:51:49.675Z,12.21
2017-04-09T00:52:50.248Z,12.12
2017-04-09T00:53:50.818Z,12.07
2017-04-09T00:54:51.391Z,12.10
2017-04-09T00:55:51.963Z,12.13
2017-04-09T00:56:52.534Z,12.09
2017-04-09T00:57:53.107Z,12.09
2017-04-09T00:58:53.678Z,12.07
2017-04-09T00:59:54.250Z,12.03
2017-04-09T01:00:54.824Z,11.95
2017-04-09T01:01:55.395Z,11.95
2017-04-09T01:02:55.967Z,12.02
2017-04-09T01:03:56.561Z,11.95
2017-04-09T01:04:57.129Z,11.95
2017-04-09T01:05:57.902Z,11.84
2017-04-09T01:06:58.473Z,11.90
2017-04-09T01:07:59.045Z,11.91
2017-04-09T01:08:59.619Z,11.90
2017-04-09T01:10:00.197Z,11.90
2017-04-09T01:11:00.760Z,11.90
2017-04-09T01:12:01.334Z,11.87
2017-04-09T01:13:01.906Z,11.95
2017-04-09T01:14:02.478Z,11.84
2017-04-09T01:15:03.064Z,11.87
2017-04-09T01:16:03.652Z,11.77
2017-04-09T01:17:04.222Z,11.88
2017-04-09T01:18:04.794Z,11.84
2017-04-09T01:19:05.368Z,11.83
2017-04-09T01:20:05.938Z,11.75
2017-04-09T01:21:06.709Z,11.69
2017-04-09T01:22:07.281Z,11.77
2017-04-09T01:23:07.854Z,11.72
2017-04-09T01:24:08.425Z,11.70
2017-04-09T01:25:08.996Z,11.72
2017-04-09T01:26:09.568Z,11.73
2017-04-09T01:27:10.140Z,11.68
2017-04-09T01:28:10.711Z,11.69
2017-04-09T01:29:11.286Z,11.59
2017-04-09T01:30:11.857Z,11.62
2017-04-09T01:31:12.427Z,11.62
2017-04-09T01:32:12.997Z,11.54
2017-04-09T01:33:13.569Z,11.59
2017-04-09T01:34:14.141Z,11.59
2017-04-09T01:35:14.710Z,11.55
2017-04-09T01:36:15.483Z,11.57
2017-04-09T01:37:16.053Z,11.63
2017-04-09T01:38:16.623Z,11.68
2017-04-09T01:39:17.194Z,11.69
2017-04-09T01:40:17.766Z,11.73
2017-04-09T01:41:18.353Z,11.66
2017-04-09T01:42:18.926Z,11.65
2017-04-09T01:43:19.496Z,11.63
2017-04-09T01:44:20.066Z,11.65
2017-04-09T01:45:20.639Z,11.62
2017-04-09T01:46:21.208Z,11.55
2017-04-09T01:47:21.781Z,11.63
2017-04-09T01:48:22.350Z,11.51
2017-04-09T01:49:22.922Z,11.51
2017-04-09T01:50:23.494Z,11.52
2017-04-09T01:51:24.265Z,11.54
2017-04-09T01:52:24.850Z,11.45
2017-04-09T01:53:25.421Z,11.60
2017-04-09T01:54:25.998Z,11.57
2017-04-09T01:55:26.565Z,11.51
2017-04-09T01:56:27.135Z,11.50
2017-04-09T01:57:27.722Z,11.48
2017-04-09T01:58:28.292Z,11.45
2017-04-09T01:59:28.863Z,11.48
2017-04-09T02:00:29.433Z,11.51
2017-04-09T02:01:30.005Z,11.50
2017-04-09T02:02:30.575Z,11.45
2017-04-09T02:03:31.144Z,11.47
2017-04-09T02:04:31.717Z,11.45
2017-04-09T02:05:32.288Z,11.51
2017-04-09T02:06:33.059Z,11.41
2017-04-09T02:07:33.631Z,11.41
2017-04-09T02:08:34.204Z,11.45
2017-04-09T02:09:34.776Z,11.44
2017-04-09T02:10:35.347Z,11.44
2017-04-09T02:11:35.923Z,11.41
2017-04-09T02:12:36.492Z,11.45
2017-04-09T02:13:37.062Z,11.43
2017-04-09T02:14:37.637Z,11.43
2017-04-09T02:15:38.206Z,11.47
2017-04-09T02:16:38.777Z,11.43
2017-04-09T02:17:39.346Z,11.43
2017-04-09T02:18:39.922Z,11.45
2017-04-09T02:19:40.506Z,11.45
2017-04-09T02:20:41.079Z,11.45
2017-04-09T02:21:41.649Z,11.40
2017-04-09T02:22:42.219Z,11.37
2017-04-09T02:23:42.792Z,11.47
2017-04-09T02:24:43.363Z,11.35
2017-04-09T02:25:43.934Z,11.36
2017-04-09T02:26:44.503Z,11.40
2017-04-09T02:27:45.075Z,11.40
2017-04-09T02:28:45.645Z,11.32
2017-04-09T02:29:46.216Z,11.30
2017-04-09T02:30:46.788Z,11.29
2017-04-09T02:31:47.360Z,11.22
2017-04-09T02:32:47.930Z,11.25
2017-04-09T02:33:48.503Z,11.35
2017-04-09T02:34:49.072Z,11.27
2017-04-09T02:35:49.642Z,11.33
2017-04-09T02:36:50.214Z,11.35
2017-04-09T02:37:50.789Z,11.32
2017-04-09T02:38:51.356Z,11.33
2017-04-09T02:39:51.926Z,11.29
2017-04-09T02:40:52.498Z,11.27
2017-04-09T02:41:53.071Z,11.29
2017-04-09T02:42:53.642Z,11.27
2017-04-09T02:43:54.213Z,11.33
2017-04-09T02:44:54.786Z,11.30
2017-04-09T02:45:55.357Z,11.23
2017-04-09T02:46:56.128Z,11.29
2017-04-09T02:47:56.703Z,11.19
2017-04-09T02:48:57.269Z,11.17
2017-04-09T02:49:57.855Z,11.11
2017-04-09T02:50:58.425Z,11.12
2017-04-09T02:51:58.994Z,11.08
2017-04-09T02:52:59.565Z,11.17
2017-04-09T02:54:00.136Z,11.02
2017-04-09T02:55:00.723Z,11.11
2017-04-09T02:56:01.293Z,10.97
2017-04-09T02:57:01.861Z,11.04
2017-04-09T02:58:02.431Z,10.92
2017-04-09T02:59:03.004Z,10.90
2017-04-09T03:00:03.573Z,10.90
2017-04-09T03:01:04.158Z,10.92
2017-04-09T03:02:04.929Z,10.90
2017-04-09T03:03:05.499Z,10.87
2017-04-09T03:04:06.071Z,10.86
2017-04-09T03:05:06.641Z,10.84
2017-04-09T03:06:07.210Z,10.90
2017-04-09T03:07:07.782Z,10.89
2017-04-09T03:08:08.352Z,10.76
2017-04-09T03:09:08.923Z,10.72
2017-04-09T03:10:09.494Z,10.74
2017-04-09T03:11:10.064Z,10.78
2017-04-09T03:12:10.636Z,10.67
2017-04-09T03:13:11.206Z,10.75
2017-04-09T03:14:11.774Z,10.74
2017-04-09T03:15:12.344Z,10.82
2017-04-09T03:16:12.913Z,10.82
2017-04-09T03:17:13.685Z,10.74
2017-04-09T03:18:14.255Z,10.81
2017-04-09T03:19:14.828Z,10.72
2017-04-09T03:20:15.398Z,10.76
2017-04-09T03:21:15.969Z,10.78
2017-04-09T03:22:16.539Z,10.76
2017-04-09T03:23:17.111Z,10.75
2017-04-09T03:24:17.684Z,10.72
2017-04-09T03:25:18.255Z,10.78
2017-04-09T03:26:18.824Z,10.72
2017-04-09T03:27:19.396Z,10.71
2017-04-09T03:28:19.968Z,10.67
2017-04-09T03:29:20.536Z,10.72
2017-04-09T03:30:21.106Z,10.71
2017-04-09T03:31:21.680Z,10.78
2017-04-09T03:32:22.449Z,10.64
2017-04-09T03:33:23.019Z,10.72
2017-04-09T03:34:23.591Z,10.71
2017-04-09T03:35:24.177Z,10.64
2017-04-09T03:36:24.746Z,10.63
2017-04-09T03:37:25.318Z,10.67
2017-04-09T03:38:25.904Z,10.71
2017-04-09T03:39:26.478Z,10.69
2017-04-09T03:40:27.061Z,10.67
2017-04-09T03:41:27.632Z,10.69
2017-04-09T03:42:28.203Z,10.64
2017-04-09T03:43:28.773Z,10.54
2017-04-09T03:44:29.342Z,10.67
2017-04-09T03:45:29.915Z,10.57
2017-04-09T03:46:30.503Z,10.56
2017-04-09T03:47:31.273Z,10.53
2017-04-09T03:48:31.860Z,10.54
2017-04-09T03:49:32.431Z,10.53
2017-04-09T03:50:33.002Z,10.54
2017-04-09T03:51:33.573Z,10.63
2017-04-09T03:52:34.170Z,10.61
2017-04-09T03:53:34.713Z,10.57
2017-04-09T03:54:35.287Z,10.56
2017-04-09T03:55:35.875Z,10.56
2017-04-09T03:56:36.445Z,10.59
2017-04-09T03:57:37.066Z,10.60
2017-04-09T03:58:37.637Z,10.56
2017-04-09T03:59:38.206Z,10.59
2017-04-09T04:00:38.775Z,10.59
2017-04-09T04:01:39.349Z,10.57
2017-04-09T04:02:40.122Z,10.61
2017-04-09T04:03:40.694Z,10.60
2017-04-09T04:04:41.260Z,10.64
2017-04-09T04:05:41.831Z,10.67
2017-04-09T04:06:42.402Z,10.60
2017-04-09T04:07:42.972Z,10.67
2017-04-09T04:08:43.543Z,10.68
2017-04-09T04:09:44.113Z,10.61
2017-04-09T04:10:44.684Z,10.69
2017-04-09T04:11:45.255Z,10.69
2017-04-09T04:12:45.824Z,10.69
2017-04-09T04:13:46.395Z,10.60
2017-04-09T04:14:46.966Z,10.67
2017-04-09T04:15:47.538Z,10.67
2017-04-09T04:16:48.108Z,10.68
2017-04-09T04:17:48.882Z,10.68
2017-04-09T04:18:49.449Z,10.63
2017-04-09T04:19:50.018Z,10.68
2017-04-09T04:20:50.588Z,10.59
2017-04-09T04:21:51.158Z,10.57
2017-04-09T04:22:51.728Z,10.61
2017-04-09T04:23:52.301Z,10.59
2017-04-09T04:24:52.872Z,10.53
2017-04-09T04:25:53.442Z,10.56
2017-04-09T04:26:54.015Z,10.53
2017-04-09T04:27:54.588Z,10.42
2017-04-09T04:28:55.161Z,10.49
2017-04-09T04:29:55.732Z,10.48
2017-04-09T04:30:56.303Z,10.41
2017-04-09T04:31:56.873Z,10.44
2017-04-09T04:32:57.647Z,10.41
2017-04-09T04:33:58.218Z,10.40
2017-04-09T04:34:58.790Z,10.40
2017-04-09T04:35:59.381Z,10.40
2017-04-09T04:36:59.952Z,10.37
2017-04-09T04:38:00.525Z,10.38
2017-04-09T04:39:01.111Z,10.28
2017-04-09T04:40:01.684Z,10.35
2017-04-09T04:41:02.256Z,10.31
2017-04-09T04:42:02.827Z,10.28
2017-04-09T04:43:03.400Z,10.19
2017-04-09T04:44:03.973Z,10.33
2017-04-09T04:45:04.544Z,10.15
2017-04-09T04:46:05.118Z,10.15
2017-04-09T04:47:05.690Z,10.20
2017-04-09T04:48:06.463Z,10.25
2017-04-09T04:49:07.035Z,10.20
2017-04-09T04:50:07.605Z,10.22
2017-04-09T04:51:08.181Z,10.25
2017-04-09T04:52:08.753Z,10.20
2017-04-09T04:53:09.328Z,10.16
2017-04-09T04:54:09.903Z,10.19
2017-04-09T04:55:10.477Z,10.20
2017-04-09T04:56:11.049Z,10.20
2017-04-09T04:57:11.622Z,10.17
2017-04-09T04:58:12.210Z,10.17
2017-04-09T04:59:12.785Z,10.23
2017-04-09T05:00:13.359Z,10.26
2017-04-09T05:01:13.933Z,10.31
2017-04-09T05:02:14.509Z,10.40
2017-04-09T05:03:15.082Z,10.46
2017-04-09T05:04:15.656Z,10.49
2017-04-09T05:05:16.230Z,10.38
2017-04-09T05:06:16.804Z,10.51
2017-04-09T05:07:17.377Z,10.49
2017-04-09T05:08:17.951Z,10.53
2017-04-09T05:09:18.528Z,10.48
2017-04-09T05:10:19.097Z,10.48
2017-04-09T05:11:19.671Z,10.56
2017-04-09T05:12:20.245Z,10.56
2017-04-09T05:13:21.020Z,10.59
2017-04-09T05:14:21.611Z,10.57
2017-04-09T05:15:22.185Z,10.67
2017-04-09T05:16:22.761Z,10.74
2017-04-09T05:17:23.334Z,10.72
2017-04-09T05:18:23.909Z,10.64
2017-04-09T05:19:24.484Z,10.76
2017-04-09T05:20:25.063Z,10.79
2017-04-09T05:21:25.634Z,10.87
2017-04-09T05:22:26.209Z,10.86
2017-04-09T05:23:26.784Z,10.81
2017-04-09T05:24:27.375Z,10.97
2017-04-09T05:25:27.952Z,10.94
2017-04-09T05:26:28.525Z,11.02
2017-04-09T05:27:29.101Z,10.97
2017-04-09T05:28:29.675Z,11.08
2017-04-09T05:29:30.264Z,11.11
2017-04-09T05:30:30.840Z,11.08
2017-04-09T05:31:31.416Z,11.17
2017-04-09T05:32:31.989Z,11.10
2017-04-09T05:33:32.565Z,11.19
2017-04-09T05:34:33.157Z,11.22
2017-04-09T05:35:33.746Z,11.14
2017-04-09T05:36:34.323Z,11.14
2017-04-09T05:37:34.896Z,11.11
2017-04-09T05:38:35.672Z,11.11
2017-04-09T05:39:36.249Z,11.15
2017-04-09T05:40:36.822Z,11.22
2017-04-09T05:41:37.398Z,11.29
2017-04-09T05:42:37.973Z,11.26
2017-04-09T05:43:38.548Z,11.29
2017-04-09T05:44:39.122Z,11.26
2017-04-09T05:45:39.697Z,11.23
2017-04-09T05:46:40.272Z,11.45
2017-04-09T05:47:40.846Z,11.40
2017-04-09T05:48:41.420Z,11.50
2017-04-09T05:49:42.012Z,11.50
2017-04-09T05:50:42.602Z,11.55
2017-04-09T05:51:43.176Z,11.65
2017-04-09T05:52:43.752Z,11.62
2017-04-09T05:53:44.525Z,11.70
2017-04-09T05:54:45.100Z,11.77
2017-04-09T05:55:45.674Z,11.77
2017-04-09T05:56:46.247Z,11.80
2017-04-09T05:57:46.821Z,11.88
2017-04-09T05:58:47.398Z,11.88
2017-04-09T05:59:47.976Z,11.95
2017-04-09T06:00:48.549Z,11.94
2017-04-09T06:01:49.125Z,12.06
2017-04-09T06:02:49.701Z,12.12
2017-04-09T06:03:50.277Z,12.10
2017-04-09T06:04:50.850Z,12.22
2017-04-09T06:05:51.427Z,12.21
2017-04-09T06:06:52.000Z,12.20
2017-04-09T06:07:52.575Z,12.28
2017-04-09T06:08:53.349Z,12.39
2017-04-09T06:09:53.923Z,12.39
2017-04-09T06:10:54.497Z,12.45
2017-04-09T06:11:55.075Z,12.50
2017-04-09T06:12:55.649Z,12.45
2017-04-09T06:13:56.229Z,12.57
2017-04-09T06:14:56.801Z,12.55
2017-04-09T06:15:57.382Z,12.65
2017-04-09T06:16:57.954Z,12.70
2017-04-09T06:17:58.530Z,12.79
2017-04-09T06:18:59.107Z,12.90
2017-04-09T06:19:59.686Z,12.91
2017-04-09T06:21:00.281Z,12.93
2017-04-09T06:22:00.859Z,13.01
2017-04-09T06:23:01.434Z,13.01
2017-04-09T06:24:02.010Z,13.05
2017-04-09T06:25:02.588Z,13.16
2017-04-09T06:26:03.165Z,13.15
2017-04-09T06:27:03.741Z,13.28
2017-04-09T06:28:04.319Z,13.35
2017-04-09T06:29:04.897Z,13.23
2017-04-09T06:30:05.474Z,13.33
2017-04-09T06:31:06.050Z,13.44
2017-04-09T06:32:06.628Z,13.59
2017-04-09T06:33:07.205Z,13.53
2017-04-09T06:34:07.784Z,13.59
2017-04-09T06:35:08.360Z,13.62
2017-04-09T06:36:08.938Z,13.63
2017-04-09T06:37:09.515Z,13.71
2017-04-09T06:38:10.094Z,13.79
2017-04-09T06:39:10.872Z,13.90
2017-04-09T06:40:11.464Z,13.92
2017-04-09T06:41:12.041Z,14.04
2017-04-09T06:42:12.618Z,14.05
2017-04-09T06:43:13.194Z,14.10
2017-04-09T06:44:13.771Z,14.18
2017-04-09T06:45:14.347Z,14.28
2017-04-09T06:46:14.929Z,14.22
2017-04-09T06:47:15.502Z,14.29
2017-04-09T06:48:16.079Z,14.35
2017-04-09T06:49:16.664Z,14.35
2017-04-09T06:50:17.240Z,14.44
2017-04-09T06:51:17.813Z,14.48
2017-04-09T06:52:18.392Z,14.54
2017-04-09T06:53:18.967Z,14.58
2017-04-09T06:54:19.746Z,14.62
2017-04-09T06:55:20.324Z,14.62
2017-04-09T06:56:20.905Z,14.78
2017-04-09T06:57:21.496Z,14.72
2017-04-09T06:58:22.076Z,14.79
2017-04-09T06:59:22.654Z,14.89
2017-04-09T07:00:23.230Z,14.86
2017-04-09T07:01:23.810Z,14.94
2017-04-09T07:02:24.385Z,14.91
2017-04-09T07:03:24.964Z,15.04
2017-04-09T07:04:25.542Z,15.07
2017-04-09T07:05:26.119Z,15.10
2017-04-09T07:06:26.697Z,15.10
2017-04-09T07:07:27.276Z,15.11
2017-04-09T07:08:27.852Z,15.19
2017-04-09T07:09:28.430Z,15.17
2017-04-09T07:10:29.023Z,15.28
2017-04-09T07:11:29.615Z,15.28
2017-04-09T07:12:30.191Z,15.36
2017-04-09T07:13:30.770Z,15.35
2017-04-09T07:14:31.347Z,15.40
2017-04-09T07:15:31.926Z,15.36
2017-04-09T07:16:32.502Z,15.49
2017-04-09T07:17:33.081Z,15.47
2017-04-09T07:18:33.658Z,15.49
2017-04-09T07:19:34.435Z,15.58
2017-04-09T07:20:35.018Z,15.59
2017-04-09T07:21:35.595Z,15.62
2017-04-09T07:22:36.169Z,15.65
2017-04-09T07:23:36.747Z,15.64
2017-04-09T07:24:37.325Z,15.70
2017-04-09T07:25:37.902Z,15.76
2017-04-09T07:26:38.484Z,15.83
2017-04-09T07:27:39.060Z,15.79
2017-04-09T07:28:39.637Z,15.84
2017-04-09T07:29:40.415Z,15.91
2017-04-09T07:30:40.994Z,15.92
2017-04-09T07:31:41.575Z,15.94
2017-04-09T07:32:42.147Z,15.95
2017-04-09T07:33:42.724Z,16.01
2017-04-09T07:34:43.302Z,16.05
2017-04-09T07:35:43.880Z,16.13
2017-04-09T07:36:44.457Z,16.20
2017-04-09T07:37:45.035Z,16.23
2017-04-09T07:38:45.614Z,16.21
2017-04-09T07:39:46.191Z,16.29
2017-04-09T07:40:46.767Z,16.38
2017-04-09T07:41:47.347Z,16.38
2017-04-09T07:42:47.925Z,16.36
2017-04-09T07:43:48.500Z,16.38
2017-04-09T07:44:49.277Z,16.42
2017-04-09T07:45:49.853Z,16.39
2017-04-09T07:46:50.449Z,16.47
2017-04-09T07:47:51.044Z,16.49
2017-04-09T07:48:51.621Z,16.65
2017-04-09T07:49:52.199Z,16.61
2017-04-09T07:50:52.778Z,16.74
2017-04-09T07:51:53.355Z,16.71
2017-04-09T07:52:53.932Z,16.84
2017-04-09T07:53:54.511Z,16.83
2017-04-09T07:54:55.104Z,16.84
2017-04-09T07:55:55.682Z,16.93
2017-04-09T07:56:56.260Z,16.87
2017-04-09T07:57:56.837Z,16.96
2017-04-09T07:58:57.415Z,16.97
2017-04-09T07:59:57.995Z,17.01
2017-04-09T08:00:58.572Z,17.08
2017-04-09T08:01:59.152Z,17.11
2017-04-09T08:02:59.730Z,17.06
2017-04-09T08:04:00.310Z,17.06
2017-04-09T08:05:00.888Z,17.20
2017-04-09T08:06:01.466Z,17.20
2017-04-09T08:07:02.046Z,17.30
2017-04-09T08:08:02.640Z,17.31
2017-04-09T08:09:03.220Z,17.36
2017-04-09T08:10:03.997Z,17.36
2017-04-09T08:11:04.595Z,17.41
2017-04-09T08:12:05.169Z,17.38
2017-04-09T08:13:05.750Z,17.39
2017-04-09T08:14:06.329Z,17.52
2017-04-09T08:15:06.909Z,17.54
2017-04-09T08:16:07.488Z,17.57
2017-04-09T08:17:08.067Z,17.54
2017-04-09T08:18:08.647Z,17.54
2017-04-09T08:19:09.224Z,17.70
2017-04-09T08:20:09.801Z,17.72
2017-04-09T08:21:10.383Z,17.68
2017-04-09T08:22:10.966Z,17.82
2017-04-09T08:23:11.541Z,17.82
2017-04-09T08:24:12.119Z,17.85
2017-04-09T08:25:12.714Z,17.83
2017-04-09T08:26:13.296Z,17.92
2017-04-09T08:27:13.875Z,17.97
2017-04-09T08:28:14.459Z,18.03
2017-04-09T08:29:15.035Z,17.86
2017-04-09T08:30:15.616Z,18.00
2017-04-09T08:31:16.197Z,18.04
2017-04-09T08:32:16.776Z,18.15
2017-04-09T08:33:17.359Z,18.00
2017-04-09T08:34:17.935Z,18.05
2017-04-09T08:35:18.516Z,18.16
2017-04-09T08:36:19.094Z,18.15
2017-04-09T08:37:19.673Z,18.25
2017-04-09T08:38:20.254Z,18.23
2017-04-09T08:39:20.835Z,18.34
2017-04-09T08:40:21.414Z,18.29
2017-04-09T08:41:21.994Z,18.34
2017-04-09T08:42:22.572Z,18.35
2017-04-09T08:43:23.152Z,18.43
2017-04-09T08:44:23.729Z,18.52
2017-04-09T08:45:24.315Z,18.49
2017-04-09T08:46:24.889Z,18.55
2017-04-09T08:47:25.469Z,18.59
2017-04-09T08:48:26.049Z,18.59
2017-04-09T08:49:26.628Z,18.68
2017-04-09T08:50:27.213Z,18.75
2017-04-09T08:51:27.789Z,18.78
2017-04-09T08:52:28.368Z,18.77
2017-04-09T08:53:28.948Z,18.80
2017-04-09T08:54:29.545Z,18.86
2017-04-09T08:55:30.125Z,18.93
2017-04-09T08:56:30.707Z,18.92
2017-04-09T08:57:31.286Z,18.92
2017-04-09T08:58:31.867Z,18.99
2017-04-09T08:59:32.452Z,19.07
2017-04-09T09:00:33.028Z,19.08
2017-04-09T09:01:33.618Z,19.07
2017-04-09T09:02:34.188Z,19.07
2017-04-09T09:03:34.786Z,19.12
2017-04-09T09:04:35.366Z,19.21
2017-04-09T09:05:35.946Z,19.29
2017-04-09T09:06:36.527Z,19.24
2017-04-09T09:07:37.108Z,19.30
2017-04-09T09:08:37.688Z,19.34
2017-04-09T09:09:38.269Z,19.41
2017-04-09T09:10:38.850Z,19.51
2017-04-09T09:11:39.430Z,19.39
2017-04-09T09:12:40.009Z,19.45
2017-04-09T09:13:40.604Z,19.58
2017-04-09T09:14:41.182Z,19.52
2017-04-09T09:15:41.765Z,19.56
2017-04-09T09:16:42.344Z,19.58
2017-04-09T09:17:42.925Z,19.62
2017-04-09T09:18:43.506Z,19.69
2017-04-09T09:19:44.087Z,19.71
2017-04-09T09:20:44.868Z,19.62
2017-04-09T09:21:45.449Z,19.76
2017-04-09T09:22:46.031Z,19.79
2017-04-09T09:23:46.611Z,19.79
2017-04-09T09:24:47.193Z,19.88
2017-04-09T09:25:47.772Z,19.91
2017-04-09T09:26:48.355Z,19.86
2017-04-09T09:27:48.933Z,19.96
2017-04-09T09:28:49.515Z,19.92
2017-04-09T09:29:50.097Z,20.02
2017-04-09T09:30:50.679Z,20.09
2017-04-09T09:31:51.259Z,20.06
2017-04-09T09:32:51.841Z,20.11
2017-04-09T09:33:52.422Z,20.07
2017-04-09T09:34:53.006Z,20.14
2017-04-09T09:35:53.785Z,20.18
2017-04-09T09:36:54.367Z,20.16
2017-04-09T09:37:54.953Z,20.22
2017-04-09T09:38:55.529Z,20.19
2017-04-09T09:39:56.111Z,20.18
2017-04-09T09:40:56.692Z,20.24
2017-04-09T09:41:57.275Z,20.18
2017-04-09T09:42:57.856Z,20.24
2017-04-09T09:43:58.456Z,20.14
2017-04-09T09:44:59.037Z,20.26
2017-04-09T09:45:59.618Z,20.25
2017-04-09T09:47:00.198Z,20.24
2017-04-09T09:48:00.781Z,20.26
2017-04-09T09:49:01.361Z,20.31
2017-04-09T09:50:01.943Z,20.28
2017-04-09T09:51:02.725Z,20.44
2017-04-09T09:52:03.306Z,20.36
2017-04-09T09:53:03.886Z,20.39
2017-04-09T09:54:04.469Z,20.37
2017-04-09T09:55:05.050Z,20.41
2017-04-09T09:56:05.631Z,20.37
2017-04-09T09:57:06.213Z,20.47
2017-04-09T09:58:06.800Z,20.58
2017-04-09T09:59:07.383Z,20.56
2017-04-09T10:00:07.957Z,20.65
2017-04-09T10:01:08.539Z,20.66
2017-04-09T10:02:09.136Z,20.69
2017-04-09T10:03:09.717Z,20.67
2017-04-09T10:04:10.300Z,20.66
2017-04-09T10:05:10.880Z,20.81
2017-04-09T10:06:11.661Z,20.75
2017-04-09T10:07:12.242Z,20.75
2017-04-09T10:08:12.822Z,20.80
2017-04-09T10:09:13.403Z,20.90
2017-04-09T10:10:13.984Z,20.96
2017-04-09T10:11:14.567Z,20.90
2017-04-09T10:12:15.147Z,21.02
2017-04-09T10:13:15.728Z,21.02
2017-04-09T10:14:16.311Z,21.02
2017-04-09T10:15:16.891Z,21.05
2017-04-09T10:16:17.473Z,21.03
2017-04-09T10:17:18.054Z,21.00
2017-04-09T10:18:18.638Z,21.20
2017-04-09T10:19:19.222Z,21.14
2017-04-09T10:20:19.800Z,21.18
2017-04-09T10:21:20.580Z,21.21
2017-04-09T10:22:21.161Z,21.29
2017-04-09T10:23:21.772Z,21.29
2017-04-09T10:24:22.355Z,21.35
2017-04-09T10:25:22.935Z,21.40
2017-04-09T10:26:23.533Z,21.40
2017-04-09T10:27:24.115Z,21.46
2017-04-09T10:28:24.714Z,21.43
2017-04-09T10:29:25.295Z,21.48
2017-04-09T10:30:25.877Z,21.58
2017-04-09T10:31:26.459Z,21.48
2017-04-09T10:32:27.042Z,21.52
2017-04-09T10:33:27.622Z,21.50
2017-04-09T10:34:28.205Z,21.39
2017-04-09T10:35:28.787Z,21.43
2017-04-09T10:36:29.368Z,21.54
2017-04-09T10:37:29.950Z,21.55
2017-04-09T10:38:30.533Z,21.52
2017-04-09T10:39:31.116Z,21.57
2017-04-09T10:40:31.696Z,21.60
2017-04-09T10:41:32.478Z,21.61
2017-04-09T10:42:33.061Z,21.57
2017-04-09T10:43:33.642Z,21.58
2017-04-09T10:44:34.225Z,21.66
2017-04-09T10:45:34.809Z,21.66
2017-04-09T10:46:35.392Z,21.66
2017-04-09T10:47:35.985Z,21.69
2017-04-09T10:48:36.573Z,21.72
2017-04-09T10:49:37.155Z,21.67
2017-04-09T10:50:37.736Z,21.72
2017-04-09T10:51:38.319Z,21.72
2017-04-09T10:52:38.900Z,21.83
2017-04-09T10:53:39.482Z,21.79
2017-04-09T10:54:40.065Z,21.70
2017-04-09T10:55:40.649Z,21.82
2017-04-09T10:56:41.230Z,21.80
2017-04-09T10:57:41.812Z,21.95
2017-04-09T10:58:42.399Z,22.06
2017-04-09T10:59:42.982Z,21.99
2017-04-09T11:00:43.559Z,22.07
2017-04-09T11:01:44.142Z,22.10
2017-04-09T11:02:44.723Z,22.10
2017-04-09T11:03:45.306Z,22.14
2017-04-09T11:04:45.886Z,22.15
2017-04-09T11:05:46.469Z,22.07
2017-04-09T11:06:47.252Z,22.14
2017-04-09T11:07:47.834Z,22.22
2017-04-09T11:08:48.416Z,22.26
2017-04-09T11:09:49.001Z,22.33
2017-04-09T11:10:49.585Z,22.38
2017-04-09T11:11:50.168Z,22.36
2017-04-09T11:12:50.751Z,22.45
2017-04-09T11:13:51.332Z,22.47
2017-04-09T11:14:51.917Z,22.55
2017-04-09T11:15:52.497Z,22.62
2017-04-09T11:16:53.080Z,22.69
2017-04-09T11:17:53.660Z,22.62
2017-04-09T11:18:54.246Z,22.73
2017-04-09T11:19:54.830Z,22.72
2017-04-09T11:20:55.412Z,22.83
2017-04-09T11:21:56.013Z,22.81
2017-04-09T11:22:56.613Z,22.83
2017-04-09T11:23:57.196Z,22.87
2017-04-09T11:24:57.778Z,22.81
2017-04-09T11:25:58.362Z,22.91
2017-04-09T11:26:58.945Z,22.85
2017-04-09T11:27:59.528Z,22.99
2017-04-09T11:29:00.112Z,22.98
2017-04-09T11:30:00.696Z,22.96
2017-04-09T11:31:01.276Z,22.98
2017-04-09T11:32:02.061Z,23.03
2017-04-09T11:33:02.646Z,23.03
2017-04-09T11:34:03.227Z,22.99
2017-04-09T11:35:03.810Z,23.05
2017-04-09T11:36:04.394Z,23.15
2017-04-09T11:37:04.979Z,23.20
2017-04-09T11:38:05.562Z,23.21
2017-04-09T11:39:06.165Z,23.31
2017-04-09T11:40:06.747Z,23.32
2017-04-09T11:41:07.331Z,23.31
2017-04-09T11:42:07.915Z,23.37
2017-04-09T11:43:08.498Z,23.36
2017-04-09T11:44:09.080Z,23.36
2017-04-09T11:45:09.663Z,23.39
2017-04-09T11:46:10.246Z,23.43
2017-04-09T11:47:11.032Z,23.48
2017-04-09T11:48:11.612Z,23.54
2017-04-09T11:49:12.198Z,23.48
2017-04-09T11:50:12.784Z,23.58
2017-04-09T11:51:13.386Z,23.55
2017-04-09T11:52:13.967Z,23.62
2017-04-09T11:53:14.553Z,23.65
2017-04-09T11:54:15.151Z,23.61
2017-04-09T11:55:15.734Z,23.68
2017-04-09T11:56:16.318Z,23.59
2017-04-09T11:57:16.902Z,23.59
2017-04-09T11:58:17.484Z,23.65
2017-04-09T11:59:18.067Z,23.69
2017-04-09T12:00:18.652Z,23.74
2017-04-09T12:01:19.238Z,23.71
2017-04-09T12:02:20.021Z,23.77
2017-04-09T12:03:20.605Z,23.87
2017-04-09T12:04:21.190Z,23.74
2017-04-09T12:05:21.774Z,23.77
2017-04-09T12:06:22.358Z,23.91
2017-04-09T12:07:22.941Z,23.87
2017-04-09T12:08:23.527Z,23.92
2017-04-09T12:09:24.109Z,23.95
2017-04-09T12:10:24.694Z,23.96
2017-04-09T12:11:25.278Z,24.01
2017-04-09T12:12:25.861Z,24.13
2017-04-09T12:13:26.445Z,24.05
2017-04-09T12:14:27.030Z,24.14
2017-04-09T12:15:27.613Z,24.18
2017-04-09T12:16:28.198Z,24.16
2017-04-09T12:17:28.781Z,24.21
2017-04-09T12:18:29.365Z,24.10
2017-04-09T12:19:29.949Z,24.11
2017-04-09T12:20:30.551Z,24.17
2017-04-09T12:21:31.134Z,24.26
2017-04-09T12:22:31.720Z,24.17
2017-04-09T12:23:32.303Z,24.21
2017-04-09T12:24:32.887Z,24.21
2017-04-09T12:25:33.471Z,24.28
2017-04-09T12:26:34.057Z,24.24
2017-04-09T12:27:34.840Z,24.26
2017-04-09T12:28:35.441Z,24.32
2017-04-09T12:29:36.026Z,24.40
2017-04-09T12:30:36.612Z,24.35
2017-04-09T12:31:37.195Z,24.39
2017-04-09T12:32:37.779Z,24.48
2017-04-09T12:33:38.367Z,24.48
2017-04-09T12:34:38.949Z,24.50
2017-04-09T12:35:39.531Z,24.57
2017-04-09T12:36:40.115Z,24.51
2017-04-09T12:37:40.699Z,24.60
2017-04-09T12:38:41.285Z,24.58
2017-04-09T12:39:41.870Z,24.70
2017-04-09T12:40:42.453Z,24.68
2017-04-09T12:41:43.037Z,24.76
2017-04-09T12:42:43.823Z,24.73
2017-04-09T12:43:44.406Z,24.76
2017-04-09T12:44:44.990Z,24.70
2017-04-09T12:45:45.575Z,24.85
2017-04-09T12:46:46.158Z,24.78
2017-04-09T12:47:46.743Z,24.92
2017-04-09T12:48:47.328Z,24.81
2017-04-09T12:49:47.914Z,24.95
2017-04-09T12:50:48.497Z,24.98
2017-04-09T12:51:49.082Z,25.03
2017-04-09T12:52:49.666Z,24.95
2017-04-09T12:53:50.252Z,24.99
2017-04-09T12:54:50.835Z,25.07
2017-04-09T12:55:51.420Z,25.07
2017-04-09T12:56:52.005Z,25.17
2017-04-09T12:57:52.790Z,25.11
2017-04-09T12:58:53.375Z,25.25
2017-04-09T12:59:53.959Z,25.26